Noble, Nebraska
Current Conditions -  °F | °C
As of 9:53 PM on Sunday 23 Nov 2014 (Local Time) from KODX Reporting Station
Broken Clouds Broken Clouds  
Wind Chill: 23°   Ceiling: 6000
Heat Index: 35°   Visibility: 10mi
Dew Point: 22°   Wind: 24mph
Humidity: 59%   Direction: 330°NNW
Pressure: 29.65"   Gusts: 35mph
Location:  41.579°N, 98.9733°W
Report Text: KODX 240353Z AUTO 33021G30KT 10SM BKN060 02/M06 A2965 RMK AO2 PK WND 32031/0313 SLP054 T00171056
Loading
Personal Weather Stations






























Interactive Weather Map New forecast layout! Learn more

10-Day Weather Forecast

Advertisements
Track Severe Weather on mobile